sensor_id;sensor_type;location;lat;lon;timestamp;P1;durP1;ratioP1;P2;durP2;ratioP2
15159;SDS011;7680;48.800;9.680;2023-01-16T00:01:57;2.97;;;2.77;;
15159;SDS011;7680;48.800;9.680;2023-01-16T00:04:32;3.20;;;2.60;;
15159;SDS011;7680;48.800;9.680;2023-01-16T00:07:07;2.67;;;2.43;;
15159;SDS011;7680;48.800;9.680;2023-01-16T00:09:40;2.47;;;2.37;;
15159;SDS011;7680;48.800;9.680;2023-01-16T00:12:13;2.90;;;2.57;;
15159;SDS011;7680;48.800;9.680;2023-01-16T00:14:46;2.97;;;2.77;;
15159;SDS011;7680;48.800;9.680;2023-01-16T00:17:19;2.73;;;2.53;;
15159;SDS011;7680;48.800;9.680;2023-01-16T00:19:52;2.97;;;2.17;;
15159;SDS011;7680;48.800;9.680;2023-01-16T00:22:27;2.90;;;2.70;;
15159;SDS011;7680;48.800;9.680;2023-01-16T00:25:00;2.73;;;2.40;;
15159;SDS011;7680;48.800;9.680;2023-01-16T00:27:33;2.40;;;2.20;;
15159;SDS011;7680;48.800;9.680;2023-01-16T00:30:06;2.83;;;2.63;;
15159;SDS011;7680;48.800;9.680;2023-01-16T00:32:41;2.80;;;2.60;;
15159;SDS011;7680;48.800;9.680;2023-01-16T00:35:14;2.83;;;2.47;;
15159;SDS011;7680;48.800;9.680;2023-01-16T00:37:48;2.80;;;2.37;;
15159;SDS011;7680;48.800;9.680;2023-01-16T00:40:21;2.20;;;2.00;;
15159;SDS011;7680;48.800;9.680;2023-01-16T00:42:55;3.27;;;2.63;;
15159;SDS011;7680;48.800;9.680;2023-01-16T00:45:28;3.43;;;2.50;;
15159;SDS011;7680;48.800;9.680;2023-01-16T00:48:01;2.80;;;2.50;;
15159;SDS011;7680;48.800;9.680;2023-01-16T00:50:35;2.70;;;2.20;;
15159;SDS011;7680;48.800;9.680;2023-01-16T00:53:09;3.17;;;2.87;;
15159;SDS011;7680;48.800;9.680;2023-01-16T00:55:42;2.83;;;2.57;;
15159;SDS011;7680;48.800;9.680;2023-01-16T00:58:15;2.43;;;2.30;;
15159;SDS011;7680;48.800;9.680;2023-01-16T01:00:48;2.93;;;2.70;;
15159;SDS011;7680;48.800;9.680;2023-01-16T01:03:21;3.30;;;2.77;;
15159;SDS011;7680;48.800;9.680;2023-01-16T01:05:54;2.70;;;2.10;;
15159;SDS011;7680;48.800;9.680;2023-01-16T01:08:29;2.83;;;2.50;;
15159;SDS011;7680;48.800;9.680;2023-01-16T01:11:06;3.17;;;2.97;;
15159;SDS011;7680;48.800;9.680;2023-01-16T01:13:40;2.20;;;2.10;;
15159;SDS011;7680;48.800;9.680;2023-01-16T01:16:14;3.20;;;2.73;;
15159;SDS011;7680;48.800;9.680;2023-01-16T01:18:47;2.73;;;2.53;;
15159;SDS011;7680;48.800;9.680;2023-01-16T01:21:20;2.60;;;2.40;;
15159;SDS011;7680;48.800;9.680;2023-01-16T01:23:56;2.43;;;2.23;;
15159;SDS011;7680;48.800;9.680;2023-01-16T01:26:29;3.13;;;2.93;;
15159;SDS011;7680;48.800;9.680;2023-01-16T01:29:02;2.53;;;2.27;;
15159;SDS011;7680;48.800;9.680;2023-01-16T01:31:35;2.40;;;2.20;;
15159;SDS011;7680;48.800;9.680;2023-01-16T01:34:08;3.20;;;2.93;;
15159;SDS011;7680;48.800;9.680;2023-01-16T01:36:41;3.43;;;2.40;;
15159;SDS011;7680;48.800;9.680;2023-01-16T01:39:16;5.23;;;2.57;;
15159;SDS011;7680;48.800;9.680;2023-01-16T01:41:49;3.40;;;2.50;;
15159;SDS011;7680;48.800;9.680;2023-01-16T01:47:21;3.33;;;2.47;;
15159;SDS011;7680;48.800;9.680;2023-01-16T01:50:00;3.00;;;2.80;;
15159;SDS011;7680;48.800;9.680;2023-01-16T01:52:37;2.70;;;2.50;;
15159;SDS011;7680;48.800;9.680;2023-01-16T01:55:12;2.57;;;2.33;;
15159;SDS011;7680;48.800;9.680;2023-01-16T01:57:47;3.40;;;2.50;;
15159;SDS011;7680;48.800;9.680;2023-01-16T02:00:27;2.80;;;2.37;;
15159;SDS011;7680;48.800;9.680;2023-01-16T02:03:04;3.20;;;2.90;;
15159;SDS011;7680;48.800;9.680;2023-01-16T02:05:42;2.97;;;2.77;;
15159;SDS011;7680;48.800;9.680;2023-01-16T02:08:20;2.67;;;2.47;;
15159;SDS011;7680;48.800;9.680;2023-01-16T02:11:00;2.67;;;2.47;;
15159;SDS011;7680;48.800;9.680;2023-01-16T02:13:38;3.30;;;2.80;;
15159;SDS011;7680;48.800;9.680;2023-01-16T02:16:12;3.87;;;3.00;;
15159;SDS011;7680;48.800;9.680;2023-01-16T02:19:02;2.97;;;2.70;;
15159;SDS011;7680;48.800;9.680;2023-01-16T02:21:55;2.23;;;2.03;;
15159;SDS011;7680;48.800;9.680;2023-01-16T02:25:03;2.43;;;2.30;;
15159;SDS011;7680;48.800;9.680;2023-01-16T02:28:11;3.23;;;2.93;;
15159;SDS011;7680;48.800;9.680;2023-01-16T02:31:37;2.70;;;2.50;;
15159;SDS011;7680;48.800;9.680;2023-01-16T02:34:23;3.07;;;2.20;;
15159;SDS011;7680;48.800;9.680;2023-01-16T02:37:17;2.67;;;2.47;;
15159;SDS011;7680;48.800;9.680;2023-01-16T02:40:06;2.77;;;2.57;;
15159;SDS011;7680;48.800;9.680;2023-01-16T02:42:54;3.03;;;2.20;;
15159;SDS011;7680;48.800;9.680;2023-01-16T02:45:38;3.90;;;2.40;;
15159;SDS011;7680;48.800;9.680;2023-01-16T02:48:23;2.60;;;2.40;;
15159;SDS011;7680;48.800;9.680;2023-01-16T02:51:02;2.90;;;2.70;;
15159;SDS011;7680;48.800;9.680;2023-01-16T02:53:44;2.90;;;2.60;;
15159;SDS011;7680;48.800;9.680;2023-01-16T02:56:22;3.47;;;2.57;;
15159;SDS011;7680;48.800;9.680;2023-01-16T02:58:59;3.23;;;2.20;;
15159;SDS011;7680;48.800;9.680;2023-01-16T03:01:33;3.43;;;2.40;;
15159;SDS011;7680;48.800;9.680;2023-01-16T03:10:38;2.87;;;2.70;;
15159;SDS011;7680;48.800;9.680;2023-01-16T03:13:31;2.80;;;2.60;;
15159;SDS011;7680;48.800;9.680;2023-01-16T03:16:24;2.67;;;2.47;;
15159;SDS011;7680;48.800;9.680;2023-01-16T03:19:12;3.10;;;2.60;;
15159;SDS011;7680;48.800;9.680;2023-01-16T03:22:02;2.60;;;2.40;;
15159;SDS011;7680;48.800;9.680;2023-01-16T03:24:49;3.30;;;2.67;;
15159;SDS011;7680;48.800;9.680;2023-01-16T03:27:36;3.87;;;3.57;;
15159;SDS011;7680;48.800;9.680;2023-01-16T03:30:20;14.37;;;9.67;;
15159;SDS011;7680;48.800;9.680;2023-01-16T03:33:01;9.50;;;6.87;;
15159;SDS011;7680;48.800;9.680;2023-01-16T03:35:39;5.40;;;4.50;;
15159;SDS011;7680;48.800;9.680;2023-01-16T03:38:20;5.50;;;3.77;;
15159;SDS011;7680;48.800;9.680;2023-01-16T03:40:56;3.00;;;2.80;;
15159;SDS011;7680;48.800;9.680;2023-01-16T03:43:34;3.40;;;2.90;;
15159;SDS011;7680;48.800;9.680;2023-01-16T03:46:10;3.27;;;2.43;;
15159;SDS011;7680;48.800;9.680;2023-01-16T03:48:48;2.90;;;2.70;;
15159;SDS011;7680;48.800;9.680;2023-01-16T03:51:27;3.00;;;2.70;;
15159;SDS011;7680;48.800;9.680;2023-01-16T03:54:08;2.80;;;2.60;;
15159;SDS011;7680;48.800;9.680;2023-01-16T03:56:49;3.13;;;2.83;;
15159;SDS011;7680;48.800;9.680;2023-01-16T03:59:28;2.70;;;2.60;;
15159;SDS011;7680;48.800;9.680;2023-01-16T04:02:03;4.00;;;2.83;;
15159;SDS011;7680;48.800;9.680;2023-01-16T04:04:43;4.00;;;3.23;;
15159;SDS011;7680;48.800;9.680;2023-01-16T04:07:23;2.67;;;2.40;;
15159;SDS011;7680;48.800;9.680;2023-01-16T04:10:09;2.87;;;2.63;;
15159;SDS011;7680;48.800;9.680;2023-01-16T04:12:47;3.20;;;2.90;;
15159;SDS011;7680;48.800;9.680;2023-01-16T04:15:23;2.53;;;2.33;;
15159;SDS011;7680;48.800;9.680;2023-01-16T04:18:00;2.70;;;2.50;;
15159;SDS011;7680;48.800;9.680;2023-01-16T04:20:33;3.13;;;2.83;;
15159;SDS011;7680;48.800;9.680;2023-01-16T04:23:08;2.83;;;2.73;;
15159;SDS011;7680;48.800;9.680;2023-01-16T04:25:42;3.10;;;2.90;;
15159;SDS011;7680;48.800;9.680;2023-01-16T04:28:16;3.23;;;2.93;;
15159;SDS011;7680;48.800;9.680;2023-01-16T04:30:49;2.93;;;2.60;;
15159;SDS011;7680;48.800;9.680;2023-01-16T04:33:22;3.30;;;2.60;;
15159;SDS011;7680;48.800;9.680;2023-01-16T04:35:56;2.80;;;2.60;;
15159;SDS011;7680;48.800;9.680;2023-01-16T04:38:29;5.40;;;4.03;;
15159;SDS011;7680;48.800;9.680;2023-01-16T04:41:03;10.43;;;5.67;;
15159;SDS011;7680;48.800;9.680;2023-01-16T04:43:36;10.73;;;6.93;;
15159;SDS011;7680;48.800;9.680;2023-01-16T04:46:09;9.50;;;6.57;;
15159;SDS011;7680;48.800;9.680;2023-01-16T04:48:43;4.03;;;3.70;;
15159;SDS011;7680;48.800;9.680;2023-01-16T04:51:16;3.47;;;3.17;;
15159;SDS011;7680;48.800;9.680;2023-01-16T04:53:49;3.70;;;2.77;;
15159;SDS011;7680;48.800;9.680;2023-01-16T04:56:24;3.03;;;2.83;;
15159;SDS011;7680;48.800;9.680;2023-01-16T04:58:57;5.03;;;3.70;;
15159;SDS011;7680;48.800;9.680;2023-01-16T05:01:30;2.63;;;2.43;;
15159;SDS011;7680;48.800;9.680;2023-01-16T05:04:07;3.67;;;3.37;;
15159;SDS011;7680;48.800;9.680;2023-01-16T05:06:42;2.87;;;2.77;;
15159;SDS011;7680;48.800;9.680;2023-01-16T05:09:15;3.43;;;3.27;;
15159;SDS011;7680;48.800;9.680;2023-01-16T05:11:49;3.77;;;2.83;;
15159;SDS011;7680;48.800;9.680;2023-01-16T05:14:22;3.00;;;2.80;;
15159;SDS011;7680;48.800;9.680;2023-01-16T05:16:55;3.70;;;3.27;;
15159;SDS011;7680;48.800;9.680;2023-01-16T05:19:28;2.60;;;2.40;;
15159;SDS011;7680;48.800;9.680;2023-01-16T05:22:02;3.40;;;2.77;;
15159;SDS011;7680;48.800;9.680;2023-01-16T05:24:35;2.73;;;2.53;;
15159;SDS011;7680;48.800;9.680;2023-01-16T05:27:09;3.10;;;2.83;;
15159;SDS011;7680;48.800;9.680;2023-01-16T05:29:42;3.20;;;3.00;;
15159;SDS011;7680;48.800;9.680;2023-01-16T05:32:15;4.73;;;2.90;;
15159;SDS011;7680;48.800;9.680;2023-01-16T05:34:48;3.00;;;2.87;;
15159;SDS011;7680;48.800;9.680;2023-01-16T05:37:21;2.97;;;2.80;;
15159;SDS011;7680;48.800;9.680;2023-01-16T05:39:54;3.20;;;3.00;;
15159;SDS011;7680;48.800;9.680;2023-01-16T05:42:29;3.40;;;2.60;;
15159;SDS011;7680;48.800;9.680;2023-01-16T05:45:03;3.57;;;2.90;;
15159;SDS011;7680;48.800;9.680;2023-01-16T05:47:37;5.07;;;3.50;;
15159;SDS011;7680;48.800;9.680;2023-01-16T05:50:10;3.33;;;2.93;;
15159;SDS011;7680;48.800;9.680;2023-01-16T05:52:43;3.57;;;3.37;;
15159;SDS011;7680;48.800;9.680;2023-01-16T05:55:16;4.47;;;4.10;;
15159;SDS011;7680;48.800;9.680;2023-01-16T05:57:50;8.73;;;7.07;;
15159;SDS011;7680;48.800;9.680;2023-01-16T06:00:24;4.60;;;4.20;;
15159;SDS011;7680;48.800;9.680;2023-01-16T06:02:57;5.13;;;3.70;;
15159;SDS011;7680;48.800;9.680;2023-01-16T06:05:30;3.87;;;3.43;;
15159;SDS011;7680;48.800;9.680;2023-01-16T06:08:03;4.23;;;3.93;;
15159;SDS011;7680;48.800;9.680;2023-01-16T06:10:36;3.50;;;3.20;;
15159;SDS011;7680;48.800;9.680;2023-01-16T06:13:11;3.50;;;3.20;;
15159;SDS011;7680;48.800;9.680;2023-01-16T06:15:44;3.47;;;3.17;;
15159;SDS011;7680;48.800;9.680;2023-01-16T06:18:17;2.93;;;2.63;;
15159;SDS011;7680;48.800;9.680;2023-01-16T06:20:50;4.03;;;3.10;;
15159;SDS011;7680;48.800;9.680;2023-01-16T06:23:23;3.30;;;3.10;;
15159;SDS011;7680;48.800;9.680;2023-01-16T06:25:56;4.20;;;2.60;;
15159;SDS011;7680;48.800;9.680;2023-01-16T06:28:31;3.13;;;2.93;;
15159;SDS011;7680;48.800;9.680;2023-01-16T06:31:04;3.20;;;3.00;;
15159;SDS011;7680;48.800;9.680;2023-01-16T06:33:38;3.93;;;3.13;;
15159;SDS011;7680;48.800;9.680;2023-01-16T06:36:11;5.03;;;4.00;;
15159;SDS011;7680;48.800;9.680;2023-01-16T06:38:44;4.03;;;3.33;;
15159;SDS011;7680;48.800;9.680;2023-01-16T06:41:17;3.53;;;3.23;;
15159;SDS011;7680;48.800;9.680;2023-01-16T06:43:52;4.20;;;3.90;;
15159;SDS011;7680;48.800;9.680;2023-01-16T06:46:25;4.23;;;3.93;;
15159;SDS011;7680;48.800;9.680;2023-01-16T06:48:58;4.13;;;3.80;;
15159;SDS011;7680;48.800;9.680;2023-01-16T06:51:31;4.57;;;3.63;;
15159;SDS011;7680;48.800;9.680;2023-01-16T06:54:04;3.73;;;3.43;;
15159;SDS011;7680;48.800;9.680;2023-01-16T06:56:37;4.53;;;3.27;;
15159;SDS011;7680;48.800;9.680;2023-01-16T06:59:11;3.80;;;3.47;;
15159;SDS011;7680;48.800;9.680;2023-01-16T07:01:44;3.77;;;3.47;;
15159;SDS011;7680;48.800;9.680;2023-01-16T07:04:18;4.23;;;3.80;;
15159;SDS011;7680;48.800;9.680;2023-01-16T07:06:51;3.80;;;3.47;;
15159;SDS011;7680;48.800;9.680;2023-01-16T07:09:24;3.47;;;3.17;;
15159;SDS011;7680;48.800;9.680;2023-01-16T07:12:00;4.20;;;3.13;;
15159;SDS011;7680;48.800;9.680;2023-01-16T07:14:35;3.13;;;2.93;;
15159;SDS011;7680;48.800;9.680;2023-01-16T07:17:25;3.73;;;3.43;;
15159;SDS011;7680;48.800;9.680;2023-01-16T07:20:16;3.90;;;3.00;;
15159;SDS011;7680;48.800;9.680;2023-01-16T07:23:11;3.47;;;3.13;;
15159;SDS011;7680;48.800;9.680;2023-01-16T07:25:49;3.30;;;3.00;;
15159;SDS011;7680;48.800;9.680;2023-01-16T07:28:23;3.30;;;3.10;;
15159;SDS011;7680;48.800;9.680;2023-01-16T07:30:57;3.10;;;2.90;;
15159;SDS011;7680;48.800;9.680;2023-01-16T07:33:32;3.33;;;3.00;;
15159;SDS011;7680;48.800;9.680;2023-01-16T07:36:05;3.20;;;2.90;;
15159;SDS011;7680;48.800;9.680;2023-01-16T07:38:39;3.20;;;3.00;;
15159;SDS011;7680;48.800;9.680;2023-01-16T07:41:12;10.87;;;3.53;;
15159;SDS011;7680;48.800;9.680;2023-01-16T07:43:46;6.13;;;3.17;;
15159;SDS011;7680;48.800;9.680;2023-01-16T07:46:20;9.60;;;3.30;;
15159;SDS011;7680;48.800;9.680;2023-01-16T07:48:53;3.43;;;3.17;;
15159;SDS011;7680;48.800;9.680;2023-01-16T07:51:27;3.73;;;3.43;;
15159;SDS011;7680;48.800;9.680;2023-01-16T07:54:01;3.27;;;2.80;;
15159;SDS011;7680;48.800;9.680;2023-01-16T07:56:34;3.50;;;3.20;;
15159;SDS011;7680;48.800;9.680;2023-01-16T07:59:07;3.17;;;2.87;;
15159;SDS011;7680;48.800;9.680;2023-01-16T08:01:41;2.30;;;2.10;;
15159;SDS011;7680;48.800;9.680;2023-01-16T08:04:16;2.70;;;2.60;;
15159;SDS011;7680;48.800;9.680;2023-01-16T08:06:50;2.77;;;2.63;;
15159;SDS011;7680;48.800;9.680;2023-01-16T08:09:23;3.10;;;2.90;;
15159;SDS011;7680;48.800;9.680;2023-01-16T08:11:56;4.00;;;3.20;;
15159;SDS011;7680;48.800;9.680;2023-01-16T08:14:29;2.80;;;2.60;;
15159;SDS011;7680;48.800;9.680;2023-01-16T08:17:03;2.73;;;2.57;;
15159;SDS011;7680;48.800;9.680;2023-01-16T08:19:37;4.10;;;2.90;;
15159;SDS011;7680;48.800;9.680;2023-01-16T08:22:10;3.03;;;2.73;;
15159;SDS011;7680;48.800;9.680;2023-01-16T08:24:43;3.20;;;2.90;;
15159;SDS011;7680;48.800;9.680;2023-01-16T08:27:16;3.03;;;2.60;;
15159;SDS011;7680;48.800;9.680;2023-01-16T08:29:50;2.60;;;2.30;;
15159;SDS011;7680;48.800;9.680;2023-01-16T08:32:24;2.50;;;2.30;;
15159;SDS011;7680;48.800;9.680;2023-01-16T08:34:57;2.37;;;2.27;;
15159;SDS011;7680;48.800;9.680;2023-01-16T08:37:30;1.93;;;1.83;;
15159;SDS011;7680;48.800;9.680;2023-01-16T08:40:04;2.77;;;2.17;;
15159;SDS011;7680;48.800;9.680;2023-01-16T08:42:40;3.00;;;2.80;;
15159;SDS011;7680;48.800;9.680;2023-01-16T08:45:31;2.63;;;2.53;;
15159;SDS011;7680;48.800;9.680;2023-01-16T08:48:24;2.70;;;2.50;;
15159;SDS011;7680;48.800;9.680;2023-01-16T08:51:16;2.57;;;2.37;;
15159;SDS011;7680;48.800;9.680;2023-01-16T08:53:54;2.50;;;2.40;;
15159;SDS011;7680;48.800;9.680;2023-01-16T08:56:29;2.53;;;2.20;;
15159;SDS011;7680;48.800;9.680;2023-01-16T08:59:02;2.17;;;2.07;;
15159;SDS011;7680;48.800;9.680;2023-01-16T09:01:35;1.90;;;1.80;;
15159;SDS011;7680;48.800;9.680;2023-01-16T09:04:11;2.57;;;2.37;;
15159;SDS011;7680;48.800;9.680;2023-01-16T09:06:44;2.30;;;2.20;;
15159;SDS011;7680;48.800;9.680;2023-01-16T09:09:17;1.80;;;1.70;;
15159;SDS011;7680;48.800;9.680;2023-01-16T09:11:54;2.77;;;2.03;;
15159;SDS011;7680;48.800;9.680;2023-01-16T09:14:46;2.30;;;2.10;;
15159;SDS011;7680;48.800;9.680;2023-01-16T09:17:19;2.37;;;2.13;;
15159;SDS011;7680;48.800;9.680;2023-01-16T09:19:53;8.20;;;6.33;;
15159;SDS011;7680;48.800;9.680;2023-01-16T09:22:26;4.83;;;2.23;;
15159;SDS011;7680;48.800;9.680;2023-01-16T09:25:00;2.63;;;2.37;;
15159;SDS011;7680;48.800;9.680;2023-01-16T09:27:33;1.90;;;1.80;;
15159;SDS011;7680;48.800;9.680;2023-01-16T09:30:07;2.20;;;2.10;;
15159;SDS011;7680;48.800;9.680;2023-01-16T09:32:43;2.00;;;1.90;;
15159;SDS011;7680;48.800;9.680;2023-01-16T09:35:20;2.43;;;2.33;;
15159;SDS011;7680;48.800;9.680;2023-01-16T09:37:53;2.20;;;2.03;;
15159;SDS011;7680;48.800;9.680;2023-01-16T09:40:26;2.00;;;1.90;;
15159;SDS011;7680;48.800;9.680;2023-01-16T09:43:03;2.10;;;2.00;;
15159;SDS011;7680;48.800;9.680;2023-01-16T09:46:13;1.90;;;1.80;;
15159;SDS011;7680;48.800;9.680;2023-01-16T09:48:50;2.03;;;1.77;;
15159;SDS011;7680;48.800;9.680;2023-01-16T09:51:31;1.87;;;1.77;;
15159;SDS011;7680;48.800;9.680;2023-01-16T09:54:09;2.50;;;2.30;;
15159;SDS011;7680;48.800;9.680;2023-01-16T09:57:09;2.27;;;2.17;;
15159;SDS011;7680;48.800;9.680;2023-01-16T10:00:04;2.07;;;1.97;;
15159;SDS011;7680;48.800;9.680;2023-01-16T10:02:40;2.60;;;2.50;;
15159;SDS011;7680;48.800;9.680;2023-01-16T10:05:14;2.33;;;2.13;;
15159;SDS011;7680;48.800;9.680;2023-01-16T10:07:51;2.53;;;2.33;;
15159;SDS011;7680;48.800;9.680;2023-01-16T10:10:39;2.47;;;2.27;;
15159;SDS011;7680;48.800;9.680;2023-01-16T10:13:22;2.13;;;2.03;;
15159;SDS011;7680;48.800;9.680;2023-01-16T10:16:13;2.53;;;2.33;;
15159;SDS011;7680;48.800;9.680;2023-01-16T10:18:57;2.83;;;2.40;;
15159;SDS011;7680;48.800;9.680;2023-01-16T10:21:41;3.40;;;2.40;;
15159;SDS011;7680;48.800;9.680;2023-01-16T10:24:39;4.03;;;3.63;;
15159;SDS011;7680;48.800;9.680;2023-01-16T10:27:26;2.50;;;2.30;;
15159;SDS011;7680;48.800;9.680;2023-01-16T10:30:08;3.40;;;3.20;;
15159;SDS011;7680;48.800;9.680;2023-01-16T10:32:46;3.30;;;2.73;;
15159;SDS011;7680;48.800;9.680;2023-01-16T10:35:26;5.83;;;4.93;;
15159;SDS011;7680;48.800;9.680;2023-01-16T10:38:08;2.70;;;2.50;;
15159;SDS011;7680;48.800;9.680;2023-01-16T10:40:56;4.73;;;3.20;;
15159;SDS011;7680;48.800;9.680;2023-01-16T10:43:32;2.83;;;2.63;;
15159;SDS011;7680;48.800;9.680;2023-01-16T10:46:25;2.67;;;2.37;;
15159;SDS011;7680;48.800;9.680;2023-01-16T10:49:22;2.17;;;2.07;;
15159;SDS011;7680;48.800;9.680;2023-01-16T10:52:00;2.17;;;2.07;;
15159;SDS011;7680;48.800;9.680;2023-01-16T10:54:36;2.50;;;2.30;;
15159;SDS011;7680;48.800;9.680;2023-01-16T10:57:14;2.03;;;1.93;;
15159;SDS011;7680;48.800;9.680;2023-01-16T10:59:50;2.60;;;2.40;;
15159;SDS011;7680;48.800;9.680;2023-01-16T11:02:28;2.77;;;2.67;;
15159;SDS011;7680;48.800;9.680;2023-01-16T11:08:01;2.43;;;2.23;;
15159;SDS011;7680;48.800;9.680;2023-01-16T11:10:39;1.87;;;1.77;;
15159;SDS011;7680;48.800;9.680;2023-01-16T11:13:16;3.00;;;2.17;;
15159;SDS011;7680;48.800;9.680;2023-01-16T11:16:17;2.13;;;2.00;;
15159;SDS011;7680;48.800;9.680;2023-01-16T11:19:16;2.10;;;2.00;;
15159;SDS011;7680;48.800;9.680;2023-01-16T11:21:52;2.27;;;2.17;;
15159;SDS011;7680;48.800;9.680;2023-01-16T11:24:30;1.93;;;1.83;;
15159;SDS011;7680;48.800;9.680;2023-01-16T11:27:13;2.70;;;2.50;;
15159;SDS011;7680;48.800;9.680;2023-01-16T11:29:53;2.87;;;2.67;;
15159;SDS011;7680;48.800;9.680;2023-01-16T11:32:28;2.50;;;2.30;;
15159;SDS011;7680;48.800;9.680;2023-01-16T11:35:10;2.20;;;2.10;;
15159;SDS011;7680;48.800;9.680;2023-01-16T11:37:48;2.80;;;2.60;;
15159;SDS011;7680;48.800;9.680;2023-01-16T11:40:24;3.53;;;2.10;;
15159;SDS011;7680;48.800;9.680;2023-01-16T11:43:00;2.43;;;2.20;;
15159;SDS011;7680;48.800;9.680;2023-01-16T11:46:06;3.30;;;3.00;;
15159;SDS011;7680;48.800;9.680;2023-01-16T11:49:14;2.80;;;2.60;;
15159;SDS011;7680;48.800;9.680;2023-01-16T11:51:49;4.30;;;2.63;;
15159;SDS011;7680;48.800;9.680;2023-01-16T11:54:27;2.70;;;2.50;;
15159;SDS011;7680;48.800;9.680;2023-01-16T11:57:05;2.77;;;2.57;;
15159;SDS011;7680;48.800;9.680;2023-01-16T12:00:11;2.10;;;2.00;;
15159;SDS011;7680;48.800;9.680;2023-01-16T12:03:18;2.67;;;2.43;;
15159;SDS011;7680;48.800;9.680;2023-01-16T12:06:38;2.63;;;2.43;;
15159;SDS011;7680;48.800;9.680;2023-01-16T12:09:26;2.20;;;2.10;;
15159;SDS011;7680;48.800;9.680;2023-01-16T12:12:30;2.10;;;2.00;;
15159;SDS011;7680;48.800;9.680;2023-01-16T12:15:25;2.17;;;1.97;;
15159;SDS011;7680;48.800;9.680;2023-01-16T12:18:10;1.90;;;1.80;;
15159;SDS011;7680;48.800;9.680;2023-01-16T12:20:56;1.73;;;1.70;;
15159;SDS011;7680;48.800;9.680;2023-01-16T12:23:38;1.53;;;1.43;;
15159;SDS011;7680;48.800;9.680;2023-01-16T12:26:45;1.77;;;1.77;;
15159;SDS011;7680;48.800;9.680;2023-01-16T12:29:34;1.37;;;1.37;;
15159;SDS011;7680;48.800;9.680;2023-01-16T12:32:27;2.23;;;2.13;;
15159;SDS011;7680;48.800;9.680;2023-01-16T12:35:33;1.90;;;1.80;;
15159;SDS011;7680;48.800;9.680;2023-01-16T12:38:20;1.60;;;1.60;;
15159;SDS011;7680;48.800;9.680;2023-01-16T12:41:05;1.40;;;1.40;;
15159;SDS011;7680;48.800;9.680;2023-01-16T12:44:16;1.60;;;1.60;;
15159;SDS011;7680;48.800;9.680;2023-01-16T12:47:24;1.60;;;1.50;;
15159;SDS011;7680;48.800;9.680;2023-01-16T12:50:27;2.10;;;2.00;;
15159;SDS011;7680;48.800;9.680;2023-01-16T12:53:20;1.80;;;1.80;;
15159;SDS011;7680;48.800;9.680;2023-01-16T12:56:13;1.87;;;1.77;;
15159;SDS011;7680;48.800;9.680;2023-01-16T12:59:01;2.00;;;1.90;;
15159;SDS011;7680;48.800;9.680;2023-01-16T13:01:46;2.40;;;2.30;;
15159;SDS011;7680;48.800;9.680;2023-01-16T13:04:24;1.93;;;1.83;;
15159;SDS011;7680;48.800;9.680;2023-01-16T13:07:02;1.70;;;1.70;;
15159;SDS011;7680;48.800;9.680;2023-01-16T13:09:40;1.47;;;1.47;;
15159;SDS011;7680;48.800;9.680;2023-01-16T13:12:19;2.33;;;2.17;;
15159;SDS011;7680;48.800;9.680;2023-01-16T13:15:17;1.67;;;1.60;;
15159;SDS011;7680;48.800;9.680;2023-01-16T13:17:58;2.00;;;1.90;;
15159;SDS011;7680;48.800;9.680;2023-01-16T13:20:35;1.77;;;1.67;;
15159;SDS011;7680;48.800;9.680;2023-01-16T13:23:13;2.00;;;2.00;;
15159;SDS011;7680;48.800;9.680;2023-01-16T13:25:52;1.80;;;1.70;;
15159;SDS011;7680;48.800;9.680;2023-01-16T13:28:36;2.37;;;1.80;;
15159;SDS011;7680;48.800;9.680;2023-01-16T13:31:18;1.80;;;1.70;;
15159;SDS011;7680;48.800;9.680;2023-01-16T13:34:00;1.77;;;1.70;;
15159;SDS011;7680;48.800;9.680;2023-01-16T13:39:58;1.37;;;1.37;;
15159;SDS011;7680;48.800;9.680;2023-01-16T13:43:00;1.53;;;1.53;;
15159;SDS011;7680;48.800;9.680;2023-01-16T13:45:56;1.90;;;1.80;;
15159;SDS011;7680;48.800;9.680;2023-01-16T13:48:33;1.43;;;1.33;;
15159;SDS011;7680;48.800;9.680;2023-01-16T13:51:11;1.67;;;1.67;;
15159;SDS011;7680;48.800;9.680;2023-01-16T13:53:46;1.53;;;1.53;;
15159;SDS011;7680;48.800;9.680;2023-01-16T13:56:25;1.50;;;1.50;;
15159;SDS011;7680;48.800;9.680;2023-01-16T13:59:01;1.80;;;1.80;;
15159;SDS011;7680;48.800;9.680;2023-01-16T14:01:52;1.77;;;1.77;;
15159;SDS011;7680;48.800;9.680;2023-01-16T14:04:30;3.23;;;3.03;;
15159;SDS011;7680;48.800;9.680;2023-01-16T14:07:45;3.53;;;3.23;;
15159;SDS011;7680;48.800;9.680;2023-01-16T14:10:39;1.93;;;1.83;;
15159;SDS011;7680;48.800;9.680;2023-01-16T14:13:20;2.10;;;2.00;;
15159;SDS011;7680;48.800;9.680;2023-01-16T14:15:58;4.70;;;4.30;;
15159;SDS011;7680;48.800;9.680;2023-01-16T14:18:57;2.20;;;2.10;;
15159;SDS011;7680;48.800;9.680;2023-01-16T14:21:43;1.37;;;1.37;;
15159;SDS011;7680;48.800;9.680;2023-01-16T14:24:47;1.87;;;1.77;;
15159;SDS011;7680;48.800;9.680;2023-01-16T14:27:24;1.90;;;1.80;;
15159;SDS011;7680;48.800;9.680;2023-01-16T14:30:06;2.00;;;1.90;;
15159;SDS011;7680;48.800;9.680;2023-01-16T14:32:51;1.80;;;1.80;;
15159;SDS011;7680;48.800;9.680;2023-01-16T14:35:28;2.47;;;2.27;;
15159;SDS011;7680;48.800;9.680;2023-01-16T14:38:13;2.03;;;1.93;;
15159;SDS011;7680;48.800;9.680;2023-01-16T14:40:50;1.67;;;1.67;;
15159;SDS011;7680;48.800;9.680;2023-01-16T14:47:11;2.13;;;2.03;;
15159;SDS011;7680;48.800;9.680;2023-01-16T14:50:15;1.87;;;1.80;;
15159;SDS011;7680;48.800;9.680;2023-01-16T14:53:13;2.17;;;2.07;;
15159;SDS011;7680;48.800;9.680;2023-01-16T14:56:10;2.30;;;2.20;;
15159;SDS011;7680;48.800;9.680;2023-01-16T14:58:58;2.13;;;2.00;;
15159;SDS011;7680;48.800;9.680;2023-01-16T15:01:38;1.60;;;1.60;;
15159;SDS011;7680;48.800;9.680;2023-01-16T15:04:39;2.53;;;2.33;;
15159;SDS011;7680;48.800;9.680;2023-01-16T15:07:19;2.13;;;2.03;;
15159;SDS011;7680;48.800;9.680;2023-01-16T15:10:00;1.90;;;1.80;;
15159;SDS011;7680;48.800;9.680;2023-01-16T15:12:40;3.57;;;3.37;;
15159;SDS011;7680;48.800;9.680;2023-01-16T15:15:21;2.07;;;2.00;;
15159;SDS011;7680;48.800;9.680;2023-01-16T15:17:56;2.40;;;2.30;;
15159;SDS011;7680;48.800;9.680;2023-01-16T15:20:50;1.90;;;1.80;;
15159;SDS011;7680;48.800;9.680;2023-01-16T15:23:40;2.43;;;2.33;;
15159;SDS011;7680;48.800;9.680;2023-01-16T15:26:25;2.03;;;1.93;;
15159;SDS011;7680;48.800;9.680;2023-01-16T15:29:19;2.23;;;2.13;;
15159;SDS011;7680;48.800;9.680;2023-01-16T15:32:03;2.10;;;2.00;;
15159;SDS011;7680;48.800;9.680;2023-01-16T15:34:48;2.40;;;2.30;;
15159;SDS011;7680;48.800;9.680;2023-01-16T15:37:46;3.77;;;3.30;;
15159;SDS011;7680;48.800;9.680;2023-01-16T15:40:22;3.20;;;2.87;;
15159;SDS011;7680;48.800;9.680;2023-01-16T15:42:56;2.00;;;1.90;;
15159;SDS011;7680;48.800;9.680;2023-01-16T15:45:49;2.30;;;2.20;;
15159;SDS011;7680;48.800;9.680;2023-01-16T15:48:48;2.37;;;2.20;;
15159;SDS011;7680;48.800;9.680;2023-01-16T15:51:48;2.00;;;1.90;;
15159;SDS011;7680;48.800;9.680;2023-01-16T15:54:24;2.23;;;2.13;;
15159;SDS011;7680;48.800;9.680;2023-01-16T15:56:58;2.10;;;1.97;;
15159;SDS011;7680;48.800;9.680;2023-01-16T15:59:49;2.17;;;2.07;;
15159;SDS011;7680;48.800;9.680;2023-01-16T16:02:25;2.07;;;1.97;;
15159;SDS011;7680;48.800;9.680;2023-01-16T16:05:02;2.30;;;2.20;;
15159;SDS011;7680;48.800;9.680;2023-01-16T16:07:36;2.43;;;2.33;;
15159;SDS011;7680;48.800;9.680;2023-01-16T16:10:12;2.27;;;2.03;;
15159;SDS011;7680;48.800;9.680;2023-01-16T16:13:07;1.80;;;1.70;;
15159;SDS011;7680;48.800;9.680;2023-01-16T16:15:53;1.73;;;1.70;;
15159;SDS011;7680;48.800;9.680;2023-01-16T16:18:55;4.90;;;4.50;;
15159;SDS011;7680;48.800;9.680;2023-01-16T16:21:31;2.70;;;2.60;;
15159;SDS011;7680;48.800;9.680;2023-01-16T16:24:10;3.13;;;2.83;;
15159;SDS011;7680;48.800;9.680;2023-01-16T16:26:47;2.23;;;2.13;;
15159;SDS011;7680;48.800;9.680;2023-01-16T16:29:20;2.30;;;2.20;;
15159;SDS011;7680;48.800;9.680;2023-01-16T16:31:54;1.87;;;1.77;;
15159;SDS011;7680;48.800;9.680;2023-01-16T16:34:33;1.87;;;1.80;;
15159;SDS011;7680;48.800;9.680;2023-01-16T16:37:08;2.00;;;1.90;;
15159;SDS011;7680;48.800;9.680;2023-01-16T16:39:44;2.13;;;2.03;;